sensor_id;sensor_type;location;lat;lon;timestamp;P1;durP1;ratioP1;P2;durP2;ratioP2
15094;SDS011;7648;52.264;9.632;2023-03-13T00:00:20;15.27;;;3.17;;
15094;SDS011;7648;52.264;9.632;2023-03-13T00:04:22;8.73;;;2.87;;
15094;SDS011;7648;52.264;9.632;2023-03-13T00:08:26;14.10;;;2.50;;
15094;SDS011;7648;52.264;9.632;2023-03-13T00:12:29;8.80;;;2.63;;
15094;SDS011;7648;52.264;9.632;2023-03-13T00:16:31;10.43;;;2.80;;
15094;SDS011;7648;52.264;9.632;2023-03-13T00:20:36;13.10;;;3.17;;
15094;SDS011;7648;52.264;9.632;2023-03-13T00:24:39;10.27;;;3.40;;
15094;SDS011;7648;52.264;9.632;2023-03-13T00:28:41;10.37;;;2.90;;
15094;SDS011;7648;52.264;9.632;2023-03-13T00:32:44;10.70;;;3.73;;
15094;SDS011;7648;52.264;9.632;2023-03-13T00:36:47;11.00;;;3.00;;
15094;SDS011;7648;52.264;9.632;2023-03-13T00:40:50;11.43;;;2.83;;
15094;SDS011;7648;52.264;9.632;2023-03-13T00:45:00;7.80;;;2.80;;
15094;SDS011;7648;52.264;9.632;2023-03-13T00:49:02;9.03;;;3.20;;
15094;SDS011;7648;52.264;9.632;2023-03-13T00:53:07;8.53;;;2.77;;
15094;SDS011;7648;52.264;9.632;2023-03-13T00:57:10;7.63;;;2.60;;
15094;SDS011;7648;52.264;9.632;2023-03-13T01:01:16;10.13;;;2.53;;
15094;SDS011;7648;52.264;9.632;2023-03-13T01:05:20;10.13;;;2.93;;
15094;SDS011;7648;52.264;9.632;2023-03-13T01:09:22;7.23;;;2.70;;
15094;SDS011;7648;52.264;9.632;2023-03-13T01:13:25;7.93;;;2.87;;
15094;SDS011;7648;52.264;9.632;2023-03-13T01:17:27;12.63;;;2.90;;
15094;SDS011;7648;52.264;9.632;2023-03-13T01:21:30;5.53;;;1.97;;
15094;SDS011;7648;52.264;9.632;2023-03-13T01:25:34;11.13;;;2.57;;
15094;SDS011;7648;52.264;9.632;2023-03-13T01:29:38;9.20;;;2.47;;
15094;SDS011;7648;52.264;9.632;2023-03-13T01:33:40;6.93;;;3.20;;
15094;SDS011;7648;52.264;9.632;2023-03-13T01:37:42;5.80;;;2.47;;
15094;SDS011;7648;52.264;9.632;2023-03-13T01:41:44;6.97;;;2.63;;
15094;SDS011;7648;52.264;9.632;2023-03-13T01:45:58;7.50;;;2.93;;
15094;SDS011;7648;52.264;9.632;2023-03-13T01:50:10;11.63;;;2.80;;
15094;SDS011;7648;52.264;9.632;2023-03-13T01:54:27;2.77;;;2.33;;
15094;SDS011;7648;52.264;9.632;2023-03-13T01:58:30;7.20;;;2.77;;
15094;SDS011;7648;52.264;9.632;2023-03-13T02:02:34;6.07;;;3.20;;
15094;SDS011;7648;52.264;9.632;2023-03-13T02:06:40;8.23;;;2.57;;
15094;SDS011;7648;52.264;9.632;2023-03-13T02:10:47;11.67;;;3.00;;
15094;SDS011;7648;52.264;9.632;2023-03-13T02:14:52;9.10;;;2.73;;
15094;SDS011;7648;52.264;9.632;2023-03-13T02:18:57;7.70;;;2.63;;
15094;SDS011;7648;52.264;9.632;2023-03-13T02:23:01;9.90;;;3.10;;
15094;SDS011;7648;52.264;9.632;2023-03-13T02:27:09;7.03;;;1.90;;
15094;SDS011;7648;52.264;9.632;2023-03-13T02:31:14;9.47;;;3.63;;
15094;SDS011;7648;52.264;9.632;2023-03-13T02:35:16;11.87;;;2.77;;
15094;SDS011;7648;52.264;9.632;2023-03-13T02:39:21;9.70;;;2.83;;
15094;SDS011;7648;52.264;9.632;2023-03-13T02:43:28;9.10;;;3.00;;
15094;SDS011;7648;52.264;9.632;2023-03-13T02:47:32;9.90;;;2.20;;
15094;SDS011;7648;52.264;9.632;2023-03-13T02:51:35;7.63;;;2.50;;
15094;SDS011;7648;52.264;9.632;2023-03-13T02:55:43;6.03;;;2.90;;
15094;SDS011;7648;52.264;9.632;2023-03-13T02:59:47;10.33;;;2.80;;
15094;SDS011;7648;52.264;9.632;2023-03-13T03:03:49;5.97;;;2.00;;
15094;SDS011;7648;52.264;9.632;2023-03-13T03:07:51;5.03;;;2.63;;
15094;SDS011;7648;52.264;9.632;2023-03-13T03:11:52;6.20;;;2.20;;
15094;SDS011;7648;52.264;9.632;2023-03-13T03:15:57;5.93;;;2.47;;
15094;SDS011;7648;52.264;9.632;2023-03-13T03:19:59;7.00;;;2.67;;
15094;SDS011;7648;52.264;9.632;2023-03-13T03:24:01;6.47;;;2.70;;
15094;SDS011;7648;52.264;9.632;2023-03-13T03:28:03;8.17;;;2.53;;
15094;SDS011;7648;52.264;9.632;2023-03-13T03:32:07;7.47;;;2.00;;
15094;SDS011;7648;52.264;9.632;2023-03-13T03:36:10;6.00;;;3.40;;
15094;SDS011;7648;52.264;9.632;2023-03-13T03:40:13;6.13;;;2.37;;
15094;SDS011;7648;52.264;9.632;2023-03-13T03:44:17;8.33;;;2.50;;
15094;SDS011;7648;52.264;9.632;2023-03-13T03:48:39;7.13;;;2.37;;
15094;SDS011;7648;52.264;9.632;2023-03-13T03:52:44;7.10;;;2.13;;
15094;SDS011;7648;52.264;9.632;2023-03-13T03:56:46;6.80;;;2.27;;
15094;SDS011;7648;52.264;9.632;2023-03-13T04:00:48;4.87;;;2.43;;
15094;SDS011;7648;52.264;9.632;2023-03-13T04:04:51;7.67;;;2.30;;
15094;SDS011;7648;52.264;9.632;2023-03-13T04:08:58;6.17;;;2.07;;
15094;SDS011;7648;52.264;9.632;2023-03-13T04:13:03;7.00;;;1.87;;
15094;SDS011;7648;52.264;9.632;2023-03-13T04:17:05;7.13;;;2.03;;
15094;SDS011;7648;52.264;9.632;2023-03-13T04:21:09;3.70;;;1.80;;
15094;SDS011;7648;52.264;9.632;2023-03-13T04:25:21;7.73;;;2.30;;
15094;SDS011;7648;52.264;9.632;2023-03-13T04:29:25;4.50;;;2.23;;
15094;SDS011;7648;52.264;9.632;2023-03-13T04:33:34;7.60;;;2.13;;
15094;SDS011;7648;52.264;9.632;2023-03-13T04:38:04;11.63;;;2.30;;
15094;SDS011;7648;52.264;9.632;2023-03-13T04:42:20;7.90;;;2.20;;
15094;SDS011;7648;52.264;9.632;2023-03-13T04:46:48;6.93;;;1.90;;
15094;SDS011;7648;52.264;9.632;2023-03-13T04:51:11;4.53;;;1.90;;
15094;SDS011;7648;52.264;9.632;2023-03-13T04:55:31;8.30;;;2.60;;
15094;SDS011;7648;52.264;9.632;2023-03-13T04:59:40;4.37;;;2.40;;
15094;SDS011;7648;52.264;9.632;2023-03-13T05:03:56;3.03;;;1.73;;
15094;SDS011;7648;52.264;9.632;2023-03-13T05:08:19;7.43;;;2.13;;
15094;SDS011;7648;52.264;9.632;2023-03-13T05:12:41;6.23;;;2.27;;
15094;SDS011;7648;52.264;9.632;2023-03-13T05:17:12;6.63;;;2.27;;
15094;SDS011;7648;52.264;9.632;2023-03-13T05:21:28;3.53;;;1.47;;
15094;SDS011;7648;52.264;9.632;2023-03-13T05:25:59;3.40;;;1.80;;
15094;SDS011;7648;52.264;9.632;2023-03-13T05:30:22;4.27;;;1.83;;
15094;SDS011;7648;52.264;9.632;2023-03-13T05:34:37;4.40;;;1.67;;
15094;SDS011;7648;52.264;9.632;2023-03-13T05:38:47;6.03;;;2.10;;
15094;SDS011;7648;52.264;9.632;2023-03-13T05:43:09;6.70;;;2.10;;
15094;SDS011;7648;52.264;9.632;2023-03-13T05:47:41;4.40;;;1.73;;
15094;SDS011;7648;52.264;9.632;2023-03-13T05:51:54;3.90;;;1.63;;
15094;SDS011;7648;52.264;9.632;2023-03-13T05:56:15;5.33;;;2.20;;
15094;SDS011;7648;52.264;9.632;2023-03-13T06:00:37;2.17;;;1.50;;
15094;SDS011;7648;52.264;9.632;2023-03-13T06:04:59;3.17;;;1.73;;
15094;SDS011;7648;52.264;9.632;2023-03-13T06:09:01;6.37;;;1.63;;
15094;SDS011;7648;52.264;9.632;2023-03-13T06:13:06;2.70;;;1.77;;
15094;SDS011;7648;52.264;9.632;2023-03-13T06:17:10;1.50;;;1.40;;
15094;SDS011;7648;52.264;9.632;2023-03-13T06:21:13;2.67;;;1.50;;
15094;SDS011;7648;52.264;9.632;2023-03-13T06:25:15;1.97;;;1.40;;
15094;SDS011;7648;52.264;9.632;2023-03-13T06:29:17;3.77;;;1.70;;
15094;SDS011;7648;52.264;9.632;2023-03-13T06:33:19;4.53;;;1.53;;
15094;SDS011;7648;52.264;9.632;2023-03-13T06:37:23;2.70;;;1.13;;
15094;SDS011;7648;52.264;9.632;2023-03-13T06:41:25;2.80;;;1.67;;
15094;SDS011;7648;52.264;9.632;2023-03-13T06:45:27;2.50;;;1.20;;
15094;SDS011;7648;52.264;9.632;2023-03-13T06:49:29;3.77;;;1.40;;
15094;SDS011;7648;52.264;9.632;2023-03-13T06:53:32;2.33;;;1.20;;
15094;SDS011;7648;52.264;9.632;2023-03-13T06:57:34;1.10;;;1.10;;
15094;SDS011;7648;52.264;9.632;2023-03-13T07:01:36;3.07;;;1.03;;
15094;SDS011;7648;52.264;9.632;2023-03-13T07:05:37;3.37;;;1.47;;
15094;SDS011;7648;52.264;9.632;2023-03-13T07:09:41;3.13;;;1.50;;
15094;SDS011;7648;52.264;9.632;2023-03-13T07:13:43;1.30;;;1.17;;
15094;SDS011;7648;52.264;9.632;2023-03-13T07:17:45;1.73;;;1.40;;
15094;SDS011;7648;52.264;9.632;2023-03-13T07:21:46;2.10;;;1.30;;
15094;SDS011;7648;52.264;9.632;2023-03-13T07:25:53;2.53;;;1.33;;
15094;SDS011;7648;52.264;9.632;2023-03-13T07:29:55;2.33;;;1.40;;
15094;SDS011;7648;52.264;9.632;2023-03-13T07:33:57;1.80;;;1.30;;
15094;SDS011;7648;52.264;9.632;2023-03-13T07:37:59;1.60;;;1.50;;
15094;SDS011;7648;52.264;9.632;2023-03-13T07:42:03;1.73;;;1.00;;
15094;SDS011;7648;52.264;9.632;2023-03-13T07:46:06;1.40;;;1.20;;
15094;SDS011;7648;52.264;9.632;2023-03-13T07:50:09;2.73;;;1.43;;
15094;SDS011;7648;52.264;9.632;2023-03-13T07:54:12;1.77;;;1.30;;
15094;SDS011;7648;52.264;9.632;2023-03-13T07:58:15;1.77;;;1.50;;
15094;SDS011;7648;52.264;9.632;2023-03-13T08:02:17;4.00;;;1.53;;
15094;SDS011;7648;52.264;9.632;2023-03-13T08:06:19;1.43;;;1.33;;
15094;SDS011;7648;52.264;9.632;2023-03-13T08:10:23;1.20;;;1.20;;
15094;SDS011;7648;52.264;9.632;2023-03-13T08:14:26;1.30;;;1.20;;
15094;SDS011;7648;52.264;9.632;2023-03-13T08:18:28;2.93;;;1.33;;
15094;SDS011;7648;52.264;9.632;2023-03-13T08:22:34;3.63;;;2.10;;
15094;SDS011;7648;52.264;9.632;2023-03-13T08:26:38;2.80;;;1.47;;
15094;SDS011;7648;52.264;9.632;2023-03-13T08:30:42;1.70;;;1.40;;
15094;SDS011;7648;52.264;9.632;2023-03-13T08:34:44;1.70;;;1.60;;
15094;SDS011;7648;52.264;9.632;2023-03-13T08:38:46;1.77;;;1.67;;
15094;SDS011;7648;52.264;9.632;2023-03-13T08:42:48;1.20;;;1.20;;
15094;SDS011;7648;52.264;9.632;2023-03-13T08:46:51;1.53;;;1.37;;
15094;SDS011;7648;52.264;9.632;2023-03-13T08:51:00;4.43;;;1.90;;
15094;SDS011;7648;52.264;9.632;2023-03-13T08:55:03;2.13;;;1.50;;
15094;SDS011;7648;52.264;9.632;2023-03-13T08:59:06;1.80;;;1.30;;
15094;SDS011;7648;52.264;9.632;2023-03-13T09:03:09;1.93;;;1.70;;
15094;SDS011;7648;52.264;9.632;2023-03-13T09:07:11;1.30;;;1.20;;
15094;SDS011;7648;52.264;9.632;2023-03-13T09:11:14;1.20;;;1.20;;
15094;SDS011;7648;52.264;9.632;2023-03-13T09:15:17;1.20;;;1.20;;
15094;SDS011;7648;52.264;9.632;2023-03-13T09:19:20;1.50;;;1.27;;
15094;SDS011;7648;52.264;9.632;2023-03-13T09:23:22;1.77;;;1.37;;
15094;SDS011;7648;52.264;9.632;2023-03-13T09:27:24;1.20;;;1.20;;
15094;SDS011;7648;52.264;9.632;2023-03-13T09:31:27;1.47;;;1.37;;
15094;SDS011;7648;52.264;9.632;2023-03-13T09:35:32;1.20;;;1.20;;
15094;SDS011;7648;52.264;9.632;2023-03-13T09:39:34;1.20;;;1.20;;
15094;SDS011;7648;52.264;9.632;2023-03-13T09:43:39;1.10;;;1.10;;
15094;SDS011;7648;52.264;9.632;2023-03-13T09:47:47;2.13;;;1.57;;
15094;SDS011;7648;52.264;9.632;2023-03-13T09:51:55;2.20;;;1.47;;
15094;SDS011;7648;52.264;9.632;2023-03-13T09:56:04;1.00;;;1.00;;
15094;SDS011;7648;52.264;9.632;2023-03-13T10:00:13;1.43;;;1.30;;
15094;SDS011;7648;52.264;9.632;2023-03-13T10:04:26;1.43;;;1.20;;
15094;SDS011;7648;52.264;9.632;2023-03-13T10:08:32;1.33;;;1.23;;
15094;SDS011;7648;52.264;9.632;2023-03-13T10:12:36;1.07;;;1.07;;
15094;SDS011;7648;52.264;9.632;2023-03-13T10:16:46;1.10;;;1.10;;
15094;SDS011;7648;52.264;9.632;2023-03-13T10:20:55;1.13;;;1.13;;
15094;SDS011;7648;52.264;9.632;2023-03-13T10:25:02;1.90;;;1.37;;
15094;SDS011;7648;52.264;9.632;2023-03-13T10:29:16;2.87;;;1.40;;
15094;SDS011;7648;52.264;9.632;2023-03-13T10:33:22;1.30;;;1.30;;
15094;SDS011;7648;52.264;9.632;2023-03-13T10:37:26;1.60;;;1.60;;
15094;SDS011;7648;52.264;9.632;2023-03-13T10:41:32;1.40;;;1.30;;
15094;SDS011;7648;52.264;9.632;2023-03-13T10:45:36;1.53;;;1.43;;
15094;SDS011;7648;52.264;9.632;2023-03-13T10:49:45;1.07;;;1.07;;
15094;SDS011;7648;52.264;9.632;2023-03-13T10:53:49;1.23;;;1.13;;
15094;SDS011;7648;52.264;9.632;2023-03-13T10:57:54;2.27;;;1.20;;
15094;SDS011;7648;52.264;9.632;2023-03-13T11:01:59;1.33;;;1.23;;
15094;SDS011;7648;52.264;9.632;2023-03-13T11:06:02;1.50;;;1.47;;
15094;SDS011;7648;52.264;9.632;2023-03-13T11:10:13;1.40;;;1.30;;
15094;SDS011;7648;52.264;9.632;2023-03-13T11:14:20;1.90;;;1.40;;
15094;SDS011;7648;52.264;9.632;2023-03-13T11:18:23;1.50;;;1.50;;
15094;SDS011;7648;52.264;9.632;2023-03-13T11:22:33;2.53;;;1.50;;
15094;SDS011;7648;52.264;9.632;2023-03-13T11:26:48;1.57;;;1.47;;
15094;SDS011;7648;52.264;9.632;2023-03-13T11:31:01;1.40;;;1.30;;
15094;SDS011;7648;52.264;9.632;2023-03-13T11:35:14;1.50;;;1.40;;
15094;SDS011;7648;52.264;9.632;2023-03-13T11:39:37;2.53;;;1.57;;
15094;SDS011;7648;52.264;9.632;2023-03-13T11:43:56;2.40;;;1.20;;
15094;SDS011;7648;52.264;9.632;2023-03-13T11:48:14;2.20;;;1.10;;
15094;SDS011;7648;52.264;9.632;2023-03-13T11:52:28;2.43;;;1.80;;
15094;SDS011;7648;52.264;9.632;2023-03-13T11:56:40;1.37;;;1.30;;
15094;SDS011;7648;52.264;9.632;2023-03-13T12:00:45;2.83;;;1.43;;
15094;SDS011;7648;52.264;9.632;2023-03-13T12:04:54;1.63;;;1.53;;
15094;SDS011;7648;52.264;9.632;2023-03-13T12:09:02;2.00;;;1.80;;
15094;SDS011;7648;52.264;9.632;2023-03-13T12:13:11;1.50;;;1.30;;
15094;SDS011;7648;52.264;9.632;2023-03-13T12:17:23;1.20;;;1.10;;
15094;SDS011;7648;52.264;9.632;2023-03-13T12:21:34;1.67;;;1.40;;
15094;SDS011;7648;52.264;9.632;2023-03-13T12:25:42;1.53;;;1.43;;
15094;SDS011;7648;52.264;9.632;2023-03-13T12:29:47;1.23;;;1.23;;
15094;SDS011;7648;52.264;9.632;2023-03-13T12:33:57;3.70;;;1.40;;
15094;SDS011;7648;52.264;9.632;2023-03-13T12:38:05;1.17;;;1.17;;
15094;SDS011;7648;52.264;9.632;2023-03-13T12:42:17;1.60;;;1.40;;
15094;SDS011;7648;52.264;9.632;2023-03-13T12:46:35;1.90;;;1.80;;
15094;SDS011;7648;52.264;9.632;2023-03-13T12:50:45;1.87;;;1.73;;
15094;SDS011;7648;52.264;9.632;2023-03-13T12:55:01;1.13;;;1.13;;
15094;SDS011;7648;52.264;9.632;2023-03-13T12:59:27;1.60;;;1.43;;
15094;SDS011;7648;52.264;9.632;2023-03-13T13:03:33;1.50;;;1.40;;
15094;SDS011;7648;52.264;9.632;2023-03-13T13:07:38;2.63;;;1.27;;
15094;SDS011;7648;52.264;9.632;2023-03-13T13:11:45;0.87;;;0.87;;
15094;SDS011;7648;52.264;9.632;2023-03-13T13:15:57;1.27;;;1.00;;
15094;SDS011;7648;52.264;9.632;2023-03-13T13:24:38;1.23;;;0.80;;
15094;SDS011;7648;52.264;9.632;2023-03-13T13:28:43;1.23;;;1.00;;
15094;SDS011;7648;52.264;9.632;2023-03-13T13:32:45;1.33;;;1.00;;
15094;SDS011;7648;52.264;9.632;2023-03-13T13:36:48;2.47;;;0.77;;
15094;SDS011;7648;52.264;9.632;2023-03-13T13:40:58;1.43;;;1.33;;
15094;SDS011;7648;52.264;9.632;2023-03-13T13:45:16;0.90;;;0.90;;
15094;SDS011;7648;52.264;9.632;2023-03-13T13:49:27;1.60;;;1.60;;
15094;SDS011;7648;52.264;9.632;2023-03-13T13:53:32;0.70;;;0.70;;
15094;SDS011;7648;52.264;9.632;2023-03-13T13:57:42;0.90;;;0.90;;
15094;SDS011;7648;52.264;9.632;2023-03-13T14:01:46;0.87;;;0.87;;
15094;SDS011;7648;52.264;9.632;2023-03-13T14:05:51;1.27;;;1.23;;
15094;SDS011;7648;52.264;9.632;2023-03-13T14:10:03;0.97;;;0.97;;
15094;SDS011;7648;52.264;9.632;2023-03-13T14:14:13;0.83;;;0.83;;
15094;SDS011;7648;52.264;9.632;2023-03-13T14:18:20;1.03;;;1.00;;
15094;SDS011;7648;52.264;9.632;2023-03-13T14:22:24;0.97;;;0.87;;
15094;SDS011;7648;52.264;9.632;2023-03-13T14:26:26;0.80;;;0.80;;
15094;SDS011;7648;52.264;9.632;2023-03-13T14:30:29;2.20;;;0.90;;
15094;SDS011;7648;52.264;9.632;2023-03-13T14:34:32;0.77;;;0.77;;
15094;SDS011;7648;52.264;9.632;2023-03-13T14:38:34;0.80;;;0.80;;
15094;SDS011;7648;52.264;9.632;2023-03-13T14:42:37;0.63;;;0.63;;
15094;SDS011;7648;52.264;9.632;2023-03-13T14:46:40;1.00;;;0.90;;
15094;SDS011;7648;52.264;9.632;2023-03-13T14:50:45;0.70;;;0.70;;
15094;SDS011;7648;52.264;9.632;2023-03-13T14:54:51;0.70;;;0.70;;
15094;SDS011;7648;52.264;9.632;2023-03-13T14:59:04;0.77;;;0.77;;
15094;SDS011;7648;52.264;9.632;2023-03-13T15:07:46;0.70;;;0.70;;
15094;SDS011;7648;52.264;9.632;2023-03-13T15:11:56;0.83;;;0.83;;
15094;SDS011;7648;52.264;9.632;2023-03-13T15:15:59;0.70;;;0.70;;
15094;SDS011;7648;52.264;9.632;2023-03-13T15:20:01;0.60;;;0.60;;
15094;SDS011;7648;52.264;9.632;2023-03-13T15:24:10;1.07;;;1.07;;
15094;SDS011;7648;52.264;9.632;2023-03-13T15:28:14;0.70;;;0.70;;
15094;SDS011;7648;52.264;9.632;2023-03-13T15:32:21;0.53;;;0.53;;
15094;SDS011;7648;52.264;9.632;2023-03-13T15:36:25;0.63;;;0.63;;
15094;SDS011;7648;52.264;9.632;2023-03-13T15:40:30;0.70;;;0.70;;
15094;SDS011;7648;52.264;9.632;2023-03-13T15:44:32;0.60;;;0.60;;
15094;SDS011;7648;52.264;9.632;2023-03-13T15:48:34;0.70;;;0.70;;
15094;SDS011;7648;52.264;9.632;2023-03-13T15:52:37;0.80;;;0.80;;
15094;SDS011;7648;52.264;9.632;2023-03-13T15:56:40;1.53;;;0.80;;
15094;SDS011;7648;52.264;9.632;2023-03-13T16:00:42;0.63;;;0.63;;
15094;SDS011;7648;52.264;9.632;2023-03-13T16:04:45;0.90;;;0.90;;
15094;SDS011;7648;52.264;9.632;2023-03-13T16:08:48;1.33;;;0.90;;
15094;SDS011;7648;52.264;9.632;2023-03-13T16:12:51;0.80;;;0.80;;
15094;SDS011;7648;52.264;9.632;2023-03-13T16:16:53;0.77;;;0.77;;
15094;SDS011;7648;52.264;9.632;2023-03-13T16:20:55;0.80;;;0.80;;
15094;SDS011;7648;52.264;9.632;2023-03-13T16:24:57;1.33;;;0.70;;
15094;SDS011;7648;52.264;9.632;2023-03-13T16:29:00;0.90;;;0.90;;
15094;SDS011;7648;52.264;9.632;2023-03-13T16:33:02;0.93;;;0.70;;
15094;SDS011;7648;52.264;9.632;2023-03-13T16:37:09;0.60;;;0.60;;
15094;SDS011;7648;52.264;9.632;2023-03-13T16:41:13;0.93;;;0.80;;
15094;SDS011;7648;52.264;9.632;2023-03-13T16:45:17;1.00;;;1.00;;
15094;SDS011;7648;52.264;9.632;2023-03-13T16:49:19;0.80;;;0.80;;
15094;SDS011;7648;52.264;9.632;2023-03-13T16:53:21;0.80;;;0.80;;
15094;SDS011;7648;52.264;9.632;2023-03-13T16:57:23;1.13;;;1.03;;
15094;SDS011;7648;52.264;9.632;2023-03-13T17:01:27;0.80;;;0.80;;
15094;SDS011;7648;52.264;9.632;2023-03-13T17:05:29;2.47;;;0.87;;
15094;SDS011;7648;52.264;9.632;2023-03-13T17:09:31;0.93;;;0.93;;
15094;SDS011;7648;52.264;9.632;2023-03-13T17:13:33;1.07;;;1.00;;
15094;SDS011;7648;52.264;9.632;2023-03-13T17:17:36;1.00;;;1.00;;
15094;SDS011;7648;52.264;9.632;2023-03-13T17:21:39;2.80;;;1.10;;
15094;SDS011;7648;52.264;9.632;2023-03-13T17:25:41;0.80;;;0.80;;
15094;SDS011;7648;52.264;9.632;2023-03-13T17:29:43;0.60;;;0.60;;
15094;SDS011;7648;52.264;9.632;2023-03-13T17:33:47;1.90;;;1.20;;
15094;SDS011;7648;52.264;9.632;2023-03-13T17:37:49;0.80;;;0.80;;
15094;SDS011;7648;52.264;9.632;2023-03-13T17:41:51;1.93;;;0.90;;
15094;SDS011;7648;52.264;9.632;2023-03-13T17:45:53;1.00;;;1.00;;
15094;SDS011;7648;52.264;9.632;2023-03-13T17:49:57;1.00;;;1.00;;
15094;SDS011;7648;52.264;9.632;2023-03-13T17:53:58;1.10;;;1.10;;
15094;SDS011;7648;52.264;9.632;2023-03-13T17:58:00;1.00;;;1.00;;
15094;SDS011;7648;52.264;9.632;2023-03-13T18:02:02;0.90;;;0.90;;
15094;SDS011;7648;52.264;9.632;2023-03-13T18:06:08;0.97;;;0.97;;
15094;SDS011;7648;52.264;9.632;2023-03-13T18:10:21;1.10;;;1.00;;
15094;SDS011;7648;52.264;9.632;2023-03-13T18:14:24;0.87;;;0.87;;
15094;SDS011;7648;52.264;9.632;2023-03-13T18:18:26;2.17;;;0.93;;
15094;SDS011;7648;52.264;9.632;2023-03-13T18:22:29;0.97;;;0.97;;
15094;SDS011;7648;52.264;9.632;2023-03-13T18:26:32;1.07;;;1.00;;
15094;SDS011;7648;52.264;9.632;2023-03-13T18:30:34;0.80;;;0.80;;
15094;SDS011;7648;52.264;9.632;2023-03-13T18:34:38;1.60;;;1.50;;
15094;SDS011;7648;52.264;9.632;2023-03-13T18:38:42;0.80;;;0.80;;
15094;SDS011;7648;52.264;9.632;2023-03-13T18:42:44;0.90;;;0.90;;
15094;SDS011;7648;52.264;9.632;2023-03-13T18:46:46;1.20;;;1.10;;
15094;SDS011;7648;52.264;9.632;2023-03-13T18:50:48;1.17;;;1.17;;
15094;SDS011;7648;52.264;9.632;2023-03-13T18:54:51;1.00;;;1.00;;
15094;SDS011;7648;52.264;9.632;2023-03-13T18:58:53;0.73;;;0.73;;
15094;SDS011;7648;52.264;9.632;2023-03-13T19:02:56;1.83;;;1.03;;
15094;SDS011;7648;52.264;9.632;2023-03-13T19:06:58;0.80;;;0.80;;
15094;SDS011;7648;52.264;9.632;2023-03-13T19:11:01;0.90;;;0.90;;
15094;SDS011;7648;52.264;9.632;2023-03-13T19:15:04;0.80;;;0.80;;
15094;SDS011;7648;52.264;9.632;2023-03-13T19:19:09;0.90;;;0.90;;
15094;SDS011;7648;52.264;9.632;2023-03-13T19:23:12;0.83;;;0.80;;
15094;SDS011;7648;52.264;9.632;2023-03-13T19:27:15;1.37;;;1.00;;
15094;SDS011;7648;52.264;9.632;2023-03-13T19:31:17;0.80;;;0.80;;
15094;SDS011;7648;52.264;9.632;2023-03-13T19:35:19;1.03;;;1.03;;
15094;SDS011;7648;52.264;9.632;2023-03-13T19:39:22;1.17;;;1.10;;
15094;SDS011;7648;52.264;9.632;2023-03-13T19:43:27;0.80;;;0.80;;
15094;SDS011;7648;52.264;9.632;2023-03-13T19:47:29;1.27;;;1.27;;
15094;SDS011;7648;52.264;9.632;2023-03-13T19:51:31;1.00;;;1.00;;
15094;SDS011;7648;52.264;9.632;2023-03-13T19:55:33;1.20;;;1.20;;
15094;SDS011;7648;52.264;9.632;2023-03-13T19:59:36;1.47;;;1.37;;
15094;SDS011;7648;52.264;9.632;2023-03-13T20:03:39;0.90;;;0.90;;
15094;SDS011;7648;52.264;9.632;2023-03-13T20:07:41;1.63;;;1.40;;
15094;SDS011;7648;52.264;9.632;2023-03-13T20:11:43;1.10;;;1.10;;
15094;SDS011;7648;52.264;9.632;2023-03-13T20:15:46;1.17;;;1.17;;
15094;SDS011;7648;52.264;9.632;2023-03-13T20:19:48;1.50;;;1.17;;
15094;SDS011;7648;52.264;9.632;2023-03-13T20:23:50;1.17;;;1.13;;
15094;SDS011;7648;52.264;9.632;2023-03-13T20:27:52;1.67;;;1.37;;
15094;SDS011;7648;52.264;9.632;2023-03-13T20:31:56;1.57;;;1.07;;
15094;SDS011;7648;52.264;9.632;2023-03-13T20:36:00;0.97;;;0.97;;
15094;SDS011;7648;52.264;9.632;2023-03-13T20:40:04;1.87;;;1.77;;
15094;SDS011;7648;52.264;9.632;2023-03-13T20:44:06;1.53;;;1.13;;
15094;SDS011;7648;52.264;9.632;2023-03-13T20:48:10;1.23;;;1.23;;
15094;SDS011;7648;52.264;9.632;2023-03-13T20:52:12;0.80;;;0.80;;
15094;SDS011;7648;52.264;9.632;2023-03-13T20:56:14;0.90;;;0.90;;
15094;SDS011;7648;52.264;9.632;2023-03-13T21:00:16;1.23;;;1.23;;
15094;SDS011;7648;52.264;9.632;2023-03-13T21:04:20;1.03;;;1.03;;
15094;SDS011;7648;52.264;9.632;2023-03-13T21:08:22;1.37;;;1.27;;
15094;SDS011;7648;52.264;9.632;2023-03-13T21:12:24;1.13;;;1.13;;
15094;SDS011;7648;52.264;9.632;2023-03-13T21:16:27;1.00;;;1.00;;
15094;SDS011;7648;52.264;9.632;2023-03-13T21:20:31;0.87;;;0.87;;
15094;SDS011;7648;52.264;9.632;2023-03-13T21:24:33;1.40;;;1.30;;
15094;SDS011;7648;52.264;9.632;2023-03-13T21:28:35;1.33;;;1.30;;
15094;SDS011;7648;52.264;9.632;2023-03-13T21:32:37;1.10;;;1.10;;
15094;SDS011;7648;52.264;9.632;2023-03-13T21:36:41;1.00;;;1.00;;
15094;SDS011;7648;52.264;9.632;2023-03-13T21:40:43;1.00;;;0.90;;
15094;SDS011;7648;52.264;9.632;2023-03-13T21:44:45;1.43;;;1.10;;
15094;SDS011;7648;52.264;9.632;2023-03-13T21:48:48;1.30;;;1.20;;
15094;SDS011;7648;52.264;9.632;2023-03-13T21:52:51;1.20;;;1.10;;
15094;SDS011;7648;52.264;9.632;2023-03-13T21:56:53;1.93;;;1.33;;
15094;SDS011;7648;52.264;9.632;2023-03-13T22:00:56;1.20;;;1.10;;
15094;SDS011;7648;52.264;9.632;2023-03-13T22:04:58;1.27;;;1.17;;
15094;SDS011;7648;52.264;9.632;2023-03-13T22:09:02;1.10;;;1.00;;
15094;SDS011;7648;52.264;9.632;2023-03-13T22:13:05;3.23;;;1.10;;
15094;SDS011;7648;52.264;9.632;2023-03-13T22:17:09;4.07;;;1.63;;
15094;SDS011;7648;52.264;9.632;2023-03-13T22:21:15;3.53;;;1.10;;
15094;SDS011;7648;52.264;9.632;2023-03-13T22:25:19;1.37;;;1.30;;
15094;SDS011;7648;52.264;9.632;2023-03-13T22:29:20;2.17;;;1.40;;
15094;SDS011;7648;52.264;9.632;2023-03-13T22:33:23;1.97;;;1.40;;
15094;SDS011;7648;52.264;9.632;2023-03-13T22:37:25;3.77;;;1.00;;
15094;SDS011;7648;52.264;9.632;2023-03-13T22:41:28;1.97;;;1.33;;
15094;SDS011;7648;52.264;9.632;2023-03-13T22:45:30;0.90;;;0.90;;
15094;SDS011;7648;52.264;9.632;2023-03-13T22:49:33;1.17;;;1.10;;
15094;SDS011;7648;52.264;9.632;2023-03-13T22:53:35;2.10;;;1.90;;
15094;SDS011;7648;52.264;9.632;2023-03-13T22:57:39;2.17;;;1.60;;
15094;SDS011;7648;52.264;9.632;2023-03-13T23:01:41;1.73;;;1.50;;
15094;SDS011;7648;52.264;9.632;2023-03-13T23:05:43;2.77;;;1.33;;
15094;SDS011;7648;52.264;9.632;2023-03-13T23:09:46;1.37;;;1.07;;
15094;SDS011;7648;52.264;9.632;2023-03-13T23:13:49;2.27;;;0.90;;
15094;SDS011;7648;52.264;9.632;2023-03-13T23:17:51;1.37;;;1.03;;
15094;SDS011;7648;52.264;9.632;2023-03-13T23:21:53;0.87;;;0.87;;
15094;SDS011;7648;52.264;9.632;2023-03-13T23:25:57;1.13;;;0.83;;
15094;SDS011;7648;52.264;9.632;2023-03-13T23:30:00;1.40;;;1.27;;
15094;SDS011;7648;52.264;9.632;2023-03-13T23:34:03;1.40;;;1.40;;
15094;SDS011;7648;52.264;9.632;2023-03-13T23:38:05;1.10;;;1.00;;
15094;SDS011;7648;52.264;9.632;2023-03-13T23:42:07;1.03;;;1.03;;
15094;SDS011;7648;52.264;9.632;2023-03-13T23:46:15;1.40;;;1.30;;
15094;SDS011;7648;52.264;9.632;2023-03-13T23:50:17;3.10;;;1.23;;
15094;SDS011;7648;52.264;9.632;2023-03-13T23:54:19;2.00;;;1.90;;
15094;SDS011;7648;52.264;9.632;2023-03-13T23:58:22;1.60;;;1.33;;
